Potter, Nebraska
Current Conditions -  °F | °C
As of 7:35 AM on Saturday 25 Oct 2014 (Local Time) from KIBM Reporting Station
Clear Clear  
Wind Chill:   Ceiling: Unl
Heat Index:   Visibility: 10mi
Dew Point: -1°   Wind: 9mph
Humidity: 71%   Direction: 290°WNW
Pressure: 30.18"   Gusts: NA
Location:  41.22°N, 103.32°W
Report Text: KIBM 251335Z AUTO 29008KT 10SM CLR 04/M01 A3018 RMK AO2 T00361013
Loading
Personal Weather Stations






























Interactive Weather Map
Tropical Storm Tracking
New forecast layout! Learn more

10-Day Weather Forecast

Advertisements
Track Severe Weather on mobile